Terminal Aerodrome Forecast
Issued by NWS

Home | Current Version | Previous Version | Text Only | Print | Product List | Glossary On
Versions: 1 2 3 4 5 6 7 8 9 10 11 12 13 14 15 16 17 18 19
000
FTUS43 KLSX 151100
TAFCPS
TAF
KCPS 151138Z 1512/1612 17005KT P6SM VCSH BKN050
     FM151600 22009KT P6SM BKN050
     FM152100 27009KT P6SM VCTS SCT015 BKN040CB
     FM152300 30011KT P6SM VCSH SCT012 OVC020
     FM160800 35009KT P6SM SCT030=

USA.gov is the U.S. government's official web portal to all federal, state and local government web resources and services.